Time;durP1;ratioP1;P1;durP2;ratioP2;P2;SDS_P1;SDS_P2;PMS_P1;PMS_P2;Temp;Humidity;BMP_temperature;BMP_pressure;BME280_temperature;BME280_humidity;BME280_pressure;Samples;Min_cycle;Max_cycle;Signal;HPM_P1;HPM_P2
2023/10/12 00:00:24;;;;;;;15.18;7.00;;;22.00;99.90;;;;;;5072432;28;20016;-71
2023/10/12 00:02:54;;;;;;;19.88;7.93;;;22.00;99.90;;;;;;5071390;28;20033;-71
2023/10/12 00:05:20;;;;;;;13.35;6.07;;;21.90;99.90;;;;;;5071745;28;20500;-71
2023/10/12 00:07:49;;;;;;;13.15;6.57;;;21.90;99.90;;;;;;5071454;28;20499;-71
2023/10/12 00:12:46;;;;;;;13.95;6.50;;;21.80;99.90;;;;;;5071261;28;20025;-71
2023/10/12 00:15:29;;;;;;;16.33;7.05;;;21.80;99.90;;;;;;5069819;28;20132;-71
2023/10/12 00:18:08;;;;;;;20.63;7.95;;;21.80;99.90;;;;;;5070972;28;20546;-71
2023/10/12 00:20:35;;;;;;;12.38;6.45;;;21.80;99.90;;;;;;5071138;28;20480;-72
2023/10/12 00:23:10;;;;;;;;;;;21.70;99.90;;;;;;5070943;28;20081;-72
2023/10/12 00:25:47;;;;;;;11.55;6.35;;;21.70;99.90;;;;;;5071439;28;20337;-71
2023/10/12 00:28:16;;;;;;;11.85;6.00;;;21.70;99.90;;;;;;5071265;28;20069;-71
2023/10/12 00:30:46;;;;;;;11.23;6.07;;;21.60;99.90;;;;;;5070954;28;20089;-71
2023/10/12 00:33:12;;;;;;;11.75;6.40;;;21.60;99.90;;;;;;5070814;28;20024;-71
2023/10/12 00:35:39;;;;;;;15.07;6.57;;;21.60;99.90;;;;;;5070856;28;20032;-72
2023/10/12 00:38:39;;;;;;;13.98;6.50;;;21.50;99.90;;;;;;5076674;28;20089;-71
2023/10/12 00:41:03;;;;;;;15.32;6.75;;;21.50;99.90;;;;;;5089100;28;20121;-71
2023/10/12 00:43:41;;;;;;;14.85;6.72;;;21.50;99.90;;;;;;5090921;28;20028;-71
2023/10/12 00:49:27;;;;;;;11.68;5.82;;;21.50;99.90;;;;;;5090897;28;20131;-70
2023/10/12 00:51:53;;;;;;;13.93;6.45;;;21.50;99.90;;;;;;5085765;28;20480;-70
2023/10/12 00:54:26;;;;;;;13.73;6.78;;;21.50;99.90;;;;;;5090753;28;20131;-71
2023/10/12 00:57:01;;;;;;;15.02;7.28;;;21.50;99.90;;;;;;5091107;28;20023;-71
2023/10/12 00:59:31;;;;;;;13.90;6.80;;;21.40;99.90;;;;;;5090958;28;20028;-72
2023/10/12 01:02:15;;;;;;;10.70;5.88;;;21.40;99.90;;;;;;5090774;28;20036;-71
2023/10/12 01:04:41;;;;;;;12.95;6.22;;;21.40;99.90;;;;;;5090601;28;20059;-70
2023/10/12 01:07:11;;;;;;;12.70;6.57;;;21.40;99.90;;;;;;5090717;28;20031;-71
2023/10/12 01:09:42;;;;;;;13.40;6.68;;;21.50;99.90;;;;;;5090536;28;20083;-71
2023/10/12 01:12:14;;;;;;;15.00;6.53;;;21.40;99.90;;;;;;5090885;28;20078;-71
2023/10/12 01:14:43;;;;;;;16.77;7.32;;;21.40;99.90;;;;;;5090918;28;20036;-72
2023/10/12 01:17:16;;;;;;;14.60;7.40;;;21.40;99.90;;;;;;5090510;28;20021;-71
2023/10/12 01:19:51;;;;;;;14.23;6.55;;;21.20;99.90;;;;;;5072326;28;20126;-71
2023/10/12 01:22:25;;;;;;;13.15;6.63;;;21.20;99.90;;;;;;5090845;28;20020;-72
2023/10/12 01:27:24;;;;;;;15.23;6.90;;;21.10;99.90;;;;;;5090484;28;20111;-72
2023/10/12 01:29:59;;;;;;;16.65;7.30;;;21.00;99.90;;;;;;5090512;28;20054;-71
2023/10/12 01:32:29;;;;;;;14.80;6.78;;;21.10;99.90;;;;;;5072264;28;20032;-70
2023/10/12 01:35:02;;;;;;;14.73;6.60;;;21.00;99.90;;;;;;5093313;28;20040;-71
2023/10/12 01:37:29;;;;;;;15.88;7.10;;;21.00;99.90;;;;;;5094151;28;20457;-70
2023/10/12 01:45:31;;;;;;;12.65;6.38;;;20.90;99.90;;;;;;5094103;28;20553;-71
2023/10/12 01:48:16;;;;;;;17.92;7.63;;;20.80;99.90;;;;;;5094452;28;20103;-71
2023/10/12 01:50:43;;;;;;;14.70;7.07;;;20.90;99.90;;;;;;5094018;28;20026;-70
2023/10/12 01:55:53;;;;;;;12.90;6.82;;;20.90;99.90;;;;;;5093944;28;20515;-71
2023/10/12 01:58:23;;;;;;;13.68;7.03;;;20.90;99.90;;;;;;5094045;28;20020;-72
2023/10/12 02:00:52;;;;;;;12.85;6.38;;;20.90;99.90;;;;;;5094324;28;20032;-70
2023/10/12 02:03:31;;;;;;;12.40;6.40;;;20.90;99.90;;;;;;5093740;28;20503;-70
2023/10/12 02:06:39;;;;;;;17.15;6.53;;;20.90;99.90;;;;;;5094056;28;20055;-71
2023/10/12 02:08:54;;;;;;;13.27;6.88;;;20.90;99.90;;;;;;5089506;28;20387;-70
2023/10/12 02:13:47;;;;;;;15.52;6.82;;;20.80;99.90;;;;;;5093575;28;20040;-70
2023/10/12 02:16:24;;;;;;;13.40;6.50;;;20.70;99.90;;;;;;5093509;28;20032;-70
2023/10/12 02:18:50;;;;;;;;;;;20.70;99.90;;;;;;5093942;28;20025;-71
2023/10/12 02:21:21;;;;;;;;;;;20.80;99.90;;;;;;5094035;28;20407;-70
2023/10/12 02:26:36;;;;;;;15.55;6.78;;;20.70;99.90;;;;;;5093450;28;20048;-71
2023/10/12 02:34:28;;;;;;;11.18;5.85;;;20.90;99.90;;;;;;5093094;28;20344;-71
2023/10/12 02:39:41;;;;;;;15.10;6.68;;;21.10;99.90;;;;;;5092714;28;20109;-71
2023/10/12 02:47:23;;;;;;;14.65;6.22;;;21.10;99.90;;;;;;5092547;28;20490;-71
2023/10/12 02:52:32;;;;;;;13.68;6.80;;;20.90;99.90;;;;;;5092933;28;20306;-71
2023/10/12 02:55:08;;;;;;;13.90;6.28;;;20.80;99.90;;;;;;5093094;28;20035;-71
2023/10/12 02:57:37;;;;;;;14.23;6.55;;;20.80;99.90;;;;;;5093629;28;20016;-72
2023/10/12 03:00:13;;;;;;;15.68;6.80;;;20.80;99.90;;;;;;5093999;28;20047;-70
2023/10/12 03:02:41;;;;;;;17.55;6.07;;;20.80;99.90;;;;;;5094188;28;20103;-70
2023/10/12 03:05:07;;;;;;;16.58;6.65;;;20.90;99.90;;;;;;5094059;28;20104;-71
2023/10/12 03:07:38;;;;;;;17.52;6.63;;;20.90;99.90;;;;;;5093603;28;20024;-71
2023/10/12 03:10:07;;;;;;;14.80;6.68;;;20.80;99.90;;;;;;5094082;28;20031;-71
2023/10/12 03:12:34;;;;;;;13.55;6.70;;;20.80;99.90;;;;;;5094027;28;20448;-70
2023/10/12 03:15:12;;;;;;;15.32;6.38;;;20.80;99.90;;;;;;5093662;28;20169;-71
2023/10/12 03:17:45;;;;;;;15.55;6.60;;;20.70;99.90;;;;;;5075492;28;20035;-70
2023/10/12 03:20:31;;;;;;;14.73;6.45;;;20.70;99.90;;;;;;5075583;28;20028;-70
2023/10/12 03:23:12;;;;;;;14.05;6.13;;;20.70;99.90;;;;;;5094231;28;20107;-71
2023/10/12 03:25:46;;;;;;;16.60;6.47;;;20.70;99.90;;;;;;5094262;28;20469;-71
2023/10/12 03:28:30;;;;;;;14.32;6.25;;;20.70;99.90;;;;;;5093796;28;20024;-71
2023/10/12 03:31:15;;;;;;;17.42;6.38;;;20.70;99.90;;;;;;5094149;28;20444;-72
2023/10/12 03:33:52;;;;;;;21.67;6.68;;;20.70;99.90;;;;;;5093818;28;20027;-71
2023/10/12 03:36:25;;;;;;;12.23;6.32;;;20.70;99.90;;;;;;5094086;28;20031;-71
2023/10/12 03:39:27;;;;;;;15.38;6.63;;;20.80;99.90;;;;;;5093552;28;20052;-71
2023/10/12 03:47:24;;;;;;;15.77;6.13;;;20.60;99.90;;;;;;5093646;28;20039;-72
2023/10/12 03:52:59;;;;;;;13.55;6.18;;;20.50;99.90;;;;;;5093398;28;20028;-71
2023/10/12 03:55:27;;;;;;;14.57;6.15;;;20.50;99.90;;;;;;5090646;28;20035;-71
2023/10/12 03:58:05;;;;;;;17.13;6.05;;;20.50;99.90;;;;;;5073675;28;20066;-71
2023/10/12 04:00:40;;;;;;;15.13;6.47;;;20.50;99.90;;;;;;5092807;28;20546;-71
2023/10/12 04:03:18;;;;;;;13.85;6.35;;;20.50;99.90;;;;;;5092895;28;20049;-71
2023/10/12 04:06:23;;;;;;;20.05;6.50;;;20.60;99.90;;;;;;5093046;28;20069;-71
2023/10/12 04:21:18;;;;;;;11.02;5.72;;;20.60;99.90;;;;;;5093462;28;20028;-71
2023/10/12 04:24:27;;;;;;;17.10;6.35;;;20.70;99.90;;;;;;5093387;28;20020;-71
2023/10/12 04:28:59;;;;;;;12.45;5.60;;;20.80;99.90;;;;;;5093234;28;20059;-71
2023/10/12 04:39:24;;;;;;;15.27;5.47;;;20.70;99.90;;;;;;5093005;28;20040;-71
2023/10/12 04:47:12;;;;;;;12.65;6.13;;;20.70;99.90;;;;;;5093066;28;20032;-71
2023/10/12 04:57:30;;;;;;;15.53;6.03;;;20.50;99.90;;;;;;5092776;28;20027;-71
2023/10/12 05:03:22;;;;;;;18.42;6.88;;;20.50;99.90;;;;;;5092513;28;20032;-71
2023/10/12 05:05:55;;;;;;;12.82;6.20;;;20.50;99.90;;;;;;5091694;28;20036;-71
2023/10/12 05:08:21;;;;;;;12.98;6.18;;;20.40;99.90;;;;;;5093498;28;20030;-71
2023/10/12 05:10:47;;;;;;;12.55;5.93;;;20.50;99.90;;;;;;5096944;28;20020;-71
2023/10/12 05:13:19;;;;;;;18.65;6.22;;;20.50;99.90;;;;;;5096951;28;20028;-71
2023/10/12 05:15:54;;;;;;;18.00;6.10;;;20.50;99.90;;;;;;5096769;28;20036;-71
2023/10/12 05:18:23;;;;;;;13.23;6.32;;;20.50;99.90;;;;;;5096854;28;20464;-71
2023/10/12 05:20:49;;;;;;;15.55;5.95;;;20.50;99.90;;;;;;5096532;28;20032;-72
2023/10/12 05:23:16;;;;;;;13.18;5.50;;;20.40;99.90;;;;;;5096986;28;20024;-71
2023/10/12 05:25:48;;;;;;;;;;;20.50;99.90;;;;;;5097212;28;20020;-72
2023/10/12 05:28:21;;;;;;;13.75;5.80;;;20.50;99.90;;;;;;5078099;28;19910;-71
2023/10/12 05:30:55;;;;;;;10.68;4.97;;;20.50;99.90;;;;;;5077684;28;20390;-72
2023/10/12 05:34:25;;;;;;;12.38;5.18;;;20.60;99.90;;;;;;5095904;28;20388;-72
2023/10/12 05:36:15;;;;;;;12.40;5.72;;;20.60;99.90;;;;;;5081395;28;20047;-72
2023/10/12 05:38:51;;;;;;;17.00;6.32;;;20.70;99.90;;;;;;5095958;28;20044;-72
2023/10/12 05:41:34;;;;;;;15.57;5.55;;;20.80;99.90;;;;;;5096314;28;20099;-70
2023/10/12 05:44:08;;;;;;;11.15;5.80;;;21.20;99.90;;;;;;5077179;28;20038;-72
2023/10/12 05:46:35;;;;;;;12.98;5.65;;;21.60;99.90;;;;;;5095991;28;20077;-71
2023/10/12 05:49:11;;;;;;;13.93;5.90;;;22.10;99.90;;;;;;5095778;28;20146;-72
2023/10/12 05:51:37;;;;;;;19.67;6.05;;;22.50;99.90;;;;;;5094848;28;20047;-72
2023/10/12 05:54:06;;;;;;;20.45;6.13;;;22.70;99.90;;;;;;5094741;28;20036;-71
2023/10/12 05:56:34;;;;;;;15.80;5.55;;;22.90;99.90;;;;;;5094049;28;20074;-71
2023/10/12 05:59:04;;;;;;;19.70;5.50;;;22.90;99.90;;;;;;5093994;28;20524;-73
2023/10/12 06:01:35;;;;;;;14.90;5.80;;;23.10;99.90;;;;;;5094689;28;20039;-70
2023/10/12 06:04:08;;;;;;;14.75;5.72;;;23.10;99.90;;;;;;5095030;28;20028;-71
2023/10/12 06:06:41;;;;;;;14.48;6.10;;;23.40;99.90;;;;;;5095168;28;20056;-71
2023/10/12 06:09:24;;;;;;;20.90;5.75;;;23.50;99.90;;;;;;5094870;28;20017;-72
2023/10/12 06:11:51;;;;;;;15.95;5.43;;;23.80;99.90;;;;;;5094200;28;20032;-71
2023/10/12 06:14:20;;;;;;;20.52;5.95;;;24.00;99.90;;;;;;5094349;28;20035;-71
2023/10/12 06:16:47;;;;;;;17.30;5.70;;;24.50;99.90;;;;;;5094806;28;20032;-71
2023/10/12 06:19:25;;;;;;;10.07;5.25;;;24.60;99.90;;;;;;5075922;28;20330;-71
2023/10/12 06:21:52;;;;;;;18.38;4.95;;;25.00;99.90;;;;;;5093808;28;20020;-71
2023/10/12 06:24:29;;;;;;;;;;;25.20;99.90;;;;;;5094850;28;20172;-71
2023/10/12 06:26:55;;;;;;;14.50;5.07;;;25.40;99.90;;;;;;5094342;28;19912;-70
2023/10/12 06:29:26;;;;;;;12.68;4.90;;;25.20;99.90;;;;;;5094378;28;20032;-72
2023/10/12 06:31:54;;;;;;;15.02;4.68;;;25.30;99.90;;;;;;5094275;28;20032;-73
2023/10/12 06:34:21;;;;;;;13.00;4.70;;;24.90;99.90;;;;;;5094207;28;20115;-72
2023/10/12 06:36:48;;;;;;;11.05;5.32;;;24.80;99.90;;;;;;5076107;28;20063;-71
2023/10/12 06:46:50;;;;;;;14.02;4.50;;;26.30;99.90;;;;;;5094141;28;20028;-72
2023/10/12 06:49:22;;;;;;;;;;;26.70;99.90;;;;;;5076142;28;20032;-72
2023/10/12 06:52:13;;;;;;;14.65;4.70;;;27.30;99.90;;;;;;5094160;28;19908;-71
2023/10/12 07:00:16;;;;;;;13.18;4.55;;;28.50;99.90;;;;;;5093880;28;20119;-71
2023/10/12 07:02:51;;;;;;;10.02;4.47;;;28.30;99.90;;;;;;5093565;28;20055;-72
2023/10/12 07:05:20;;;;;;;15.07;4.90;;;28.50;99.90;;;;;;5093414;28;20081;-72
2023/10/12 07:07:51;;;;;;;12.93;4.43;;;29.00;99.90;;;;;;5093563;28;20020;-71
2023/10/12 07:10:28;;;;;;;12.30;4.57;;;29.40;99.90;;;;;;5093846;28;20024;-71
2023/10/12 07:12:59;;;;;;;15.63;4.50;;;28.10;99.90;;;;;;5093777;28;20091;-72
2023/10/12 07:15:31;;;;;;;9.95;4.28;;;28.80;99.90;;;;;;5093937;28;20036;-71
2023/10/12 07:17:58;;;;;;;10.75;4.55;;;28.70;99.90;;;;;;5075286;28;20437;-71
2023/10/12 07:23:14;;;;;;;12.15;4.45;;;27.70;99.90;;;;;;5093404;28;20093;-71
2023/10/12 07:25:43;;;;;;;18.73;4.47;;;27.60;99.90;;;;;;5093395;28;20028;-71
2023/10/12 07:28:18;;;;;;;9.63;3.65;;;27.20;99.90;;;;;;5093384;28;20017;-69
2023/10/12 07:33:32;;;;;;;10.20;4.82;;;26.50;99.90;;;;;;5051612;28;20130;-71
2023/10/12 07:36:18;;;;;;;13.27;4.32;;;26.10;99.90;;;;;;5093296;28;20035;-71
2023/10/12 07:39:11;;;;;;;14.70;4.67;;;26.40;99.90;;;;;;5074604;28;20044;-72
2023/10/12 07:41:41;;;;;;;16.20;4.13;;;26.80;99.90;;;;;;5092823;28;20070;-72
2023/10/12 07:44:10;;;;;;;11.88;4.03;;;27.40;99.90;;;;;;5092914;28;20098;-73
2023/10/12 07:46:36;;;;;;;10.32;4.25;;;27.70;99.90;;;;;;5092972;28;20111;-72
2023/10/12 07:51:59;;;;;;;10.20;3.90;;;27.60;99.90;;;;;;5092277;28;20048;-72
2023/10/12 07:54:46;;;;;;;11.77;4.63;;;27.80;99.90;;;;;;5092513;28;20020;-72
2023/10/12 07:57:11;;;;;;;;;;;27.70;99.90;;;;;;5092320;28;20124;-71
2023/10/12 07:59:38;;;;;;;;;;;27.60;99.90;;;;;;5092623;28;19904;-72
2023/10/12 08:02:15;;;;;;;15.10;4.30;;;27.40;99.90;;;;;;5091958;28;20389;-72
2023/10/12 08:05:14;;;;;;;13.35;3.85;;;27.50;99.90;;;;;;5091801;28;20111;-72
2023/10/12 08:13:16;;;;;;;10.80;3.50;;;27.90;99.90;;;;;;5091977;28;19992;-73
2023/10/12 08:15:55;;;;;;;12.52;3.67;;;28.40;99.90;;;;;;5092123;28;20032;-72
2023/10/12 08:24:04;;;;;;;12.48;4.18;;;28.90;99.30;;;;;;5049752;28;20017;-72
2023/10/12 08:26:50;;;;;;;11.82;3.88;;;29.10;99.00;;;;;;5049599;28;20073;-72
2023/10/12 08:31:46;;;;;;;13.80;4.43;;;29.60;98.90;;;;;;5049559;28;20428;-73
2023/10/12 08:44:47;;;;;;;16.92;5.18;;;29.00;98.60;;;;;;5048964;28;20447;-71
2023/10/12 08:47:25;;;;;;;17.27;6.30;;;28.60;99.90;;;;;;5049145;28;20025;-71
2023/10/12 08:50:01;;;;;;;17.92;5.82;;;28.50;99.90;;;;;;5048624;28;20055;-72
2023/10/12 08:52:28;;;;;;;;;;;28.40;99.90;;;;;;5049508;28;20028;-71
2023/10/12 08:55:08;;;;;;;16.08;5.40;;;28.60;99.90;;;;;;5048946;28;19964;-72
2023/10/12 08:58:16;;;;;;;25.08;6.05;;;28.80;99.90;;;;;;5070129;28;20464;-72
2023/10/12 09:03:44;;;;;;;14.98;4.93;;;28.50;99.90;;;;;;5048231;28;20050;-72
2023/10/12 09:06:29;;;;;;;15.43;5.03;;;28.30;99.90;;;;;;5048279;28;20056;-72
2023/10/12 09:08:56;;;;;;;17.95;5.32;;;28.50;99.90;;;;;;5048552;28;20155;-72
2023/10/12 09:11:35;;;;;;;15.82;5.30;;;28.70;99.90;;;;;;5031970;28;20164;-71
2023/10/12 09:14:16;;;;;;;18.30;5.28;;;28.80;99.90;;;;;;5047938;28;20151;-71
2023/10/12 09:16:43;;;;;;;23.42;4.75;;;28.70;99.90;;;;;;5048180;28;20115;-72
2023/10/12 09:19:32;;;;;;;10.45;4.38;;;28.80;99.90;;;;;;5031941;28;20068;-73
2023/10/12 09:22:00;;;;;;;15.18;5.20;;;28.60;99.90;;;;;;5032233;28;20032;-72
2023/10/12 09:24:29;;;;;;;17.80;6.63;;;28.40;99.90;;;;;;5048985;28;20385;-72
2023/10/12 09:26:59;;;;;;;16.55;4.78;;;28.50;99.90;;;;;;5048855;28;20043;-72
2023/10/12 09:29:27;;;;;;;10.38;4.68;;;28.30;99.90;;;;;;5048824;28;20123;-72
2023/10/12 09:34:47;;;;;;;17.48;5.03;;;27.80;99.90;;;;;;5048278;28;20040;-72
2023/10/12 09:37:17;;;;;;;13.82;5.13;;;28.00;99.90;;;;;;5049049;28;20155;-71
2023/10/12 09:39:45;;;;;;;15.15;4.90;;;28.20;99.90;;;;;;5047026;28;20044;-73
2023/10/12 09:42:22;;;;;;;13.77;4.50;;;28.30;99.90;;;;;;5070977;28;20051;-73
2023/10/12 09:45:01;;;;;;;14.98;4.90;;;28.00;99.90;;;;;;5071218;28;20046;-72
2023/10/12 09:50:34;;;;;;;15.07;4.90;;;28.00;99.90;;;;;;4989021;28;20037;-72
2023/10/12 09:53:21;;;;;;;15.20;4.93;;;28.30;99.90;;;;;;4989348;28;20067;-72
2023/10/12 10:02:10;;;;;;;14.90;5.35;;;28.30;99.90;;;;;;4992502;28;20443;-71
2023/10/12 10:07:15;;;;;;;14.15;5.03;;;28.20;99.90;;;;;;4992515;28;20037;-73
2023/10/12 10:09:46;;;;;;;13.95;5.10;;;28.10;99.90;;;;;;4993345;28;20030;-72
2023/10/12 10:12:18;;;;;;;15.52;5.40;;;28.50;99.90;;;;;;4976517;28;20430;-71
2023/10/12 10:14:46;;;;;;;15.65;5.32;;;28.30;99.90;;;;;;4992072;28;20050;-72
2023/10/12 10:17:16;;;;;;;15.48;4.95;;;28.40;99.90;;;;;;4976025;28;20026;-70
2023/10/12 10:19:44;;;;;;;13.80;5.43;;;28.30;99.90;;;;;;4992553;28;20077;-72
2023/10/12 10:22:14;;;;;;;23.45;5.63;;;28.20;99.90;;;;;;4993482;28;20038;-73
2023/10/12 10:24:55;;;;;;;16.60;5.75;;;28.10;99.90;;;;;;4992581;28;20038;-71
2023/10/12 10:27:35;;;;;;;14.98;5.10;;;28.20;99.90;;;;;;5062548;28;20078;-71
2023/10/12 10:30:25;;;;;;;14.02;5.07;;;28.10;99.90;;;;;;5093911;28;20028;-71
2023/10/12 10:33:12;;;;;;;16.08;5.07;;;28.10;99.90;;;;;;5075907;28;20081;-71
2023/10/12 10:44:22;;;;;;;17.25;5.63;;;27.80;99.90;;;;;;5051522;28;20160;-72
2023/10/12 10:46:54;;;;;;;18.27;5.85;;;27.80;99.90;;;;;;5051410;28;20120;-71
2023/10/12 10:49:21;;;;;;;14.52;5.80;;;28.10;99.90;;;;;;5051308;28;20040;-71
2023/10/12 10:54:37;;;;;;;17.65;5.05;;;28.50;99.90;;;;;;5051310;28;20198;-71
2023/10/12 10:57:15;;;;;;;15.82;5.55;;;28.50;99.90;;;;;;5050600;28;20017;-72
2023/10/12 10:59:44;;;;;;;17.35;4.93;;;28.40;99.90;;;;;;5033994;28;20033;-73
2023/10/12 11:02:14;;;;;;;17.50;5.60;;;28.20;99.90;;;;;;5050509;28;20025;-71
2023/10/12 11:07:20;;;;;;;14.68;4.97;;;28.20;99.90;;;;;;5050336;28;20120;-71
2023/10/12 11:12:24;;;;;;;14.85;4.75;;;28.20;99.90;;;;;;5054779;28;20024;-71
2023/10/12 11:15:01;;;;;;;15.90;4.13;;;28.20;99.90;;;;;;5055117;28;20036;-71
2023/10/12 11:17:35;;;;;;;13.55;4.43;;;28.20;99.90;;;;;;5074068;28;20031;-71
2023/10/12 11:20:07;;;;;;;14.90;4.90;;;28.20;99.90;;;;;;5073569;28;20028;-71
2023/10/12 11:22:37;;;;;;;13.60;4.97;;;28.00;99.90;;;;;;5073718;28;20028;-72
2023/10/12 11:25:10;;;;;;;19.33;5.93;;;28.20;99.90;;;;;;5074172;28;20465;-71
2023/10/12 11:27:36;;;;;;;19.08;6.18;;;28.20;99.90;;;;;;5060377;28;20035;-72
2023/10/12 11:30:19;;;;;;;16.40;6.80;;;28.30;99.90;;;;;;5094213;28;20028;-71
2023/10/12 11:32:58;;;;;;;21.55;6.63;;;28.20;99.90;;;;;;5094026;28;20020;-69
2023/10/12 11:35:44;;;;;;;13.50;6.85;;;28.00;99.90;;;;;;5093479;28;20028;-72
2023/10/12 11:38:21;;;;;;;21.63;10.30;;;28.10;99.90;;;;;;5093500;28;20071;-71
2023/10/12 11:40:55;;;;;;;26.45;13.80;;;27.80;99.90;;;;;;5093657;28;20032;-71
2023/10/12 11:43:44;;;;;;;36.60;18.67;;;28.00;99.90;;;;;;5093561;28;20049;-70
2023/10/12 11:46:10;;;;;;;49.28;21.00;;;28.10;99.90;;;;;;5093551;28;20035;-71
2023/10/12 11:48:37;;;;;;;30.85;13.02;;;28.10;99.90;;;;;;5093187;28;20024;-71
2023/10/12 11:51:12;;;;;;;21.38;8.65;;;28.30;99.90;;;;;;5093234;28;20034;-70
2023/10/12 11:53:39;;;;;;;27.02;8.52;;;28.40;99.90;;;;;;5093259;28;20036;-71
2023/10/12 11:56:17;;;;;;;17.60;5.88;;;27.80;99.90;;;;;;5093658;28;20036;-70
2023/10/12 11:58:51;;;;;;;14.93;5.00;;;28.10;99.90;;;;;;5075043;28;20016;-71
2023/10/12 12:01:18;;;;;;;13.65;5.45;;;28.30;99.90;;;;;;5075018;28;20077;-71
2023/10/12 12:03:45;;;;;;;16.17;5.18;;;27.80;99.90;;;;;;5092832;28;20122;-70
2023/10/12 12:06:21;;;;;;;12.50;4.60;;;28.00;99.90;;;;;;5093506;28;20027;-71
2023/10/12 12:08:52;;;;;;;19.50;4.88;;;28.10;99.90;;;;;;5074676;28;20028;-71
2023/10/12 12:11:19;;;;;;;14.60;5.18;;;28.30;99.90;;;;;;5093298;28;20034;-71
2023/10/12 12:13:52;;;;;;;13.20;4.88;;;28.30;99.90;;;;;;5092987;28;20024;-71
2023/10/12 12:16:21;;;;;;;11.45;4.78;;;28.50;99.90;;;;;;5093173;28;20024;-71
2023/10/12 12:18:50;;;;;;;18.35;4.93;;;28.20;99.90;;;;;;5091753;28;20537;-70
2023/10/12 12:21:17;;;;;;;17.10;4.88;;;28.30;99.90;;;;;;5092966;28;20020;-72
2023/10/12 12:23:49;;;;;;;15.63;5.10;;;28.60;99.90;;;;;;5093593;28;20016;-71
2023/10/12 12:26:18;;;;;;;10.57;4.10;;;28.50;99.90;;;;;;5093644;28;20030;-71
2023/10/12 12:28:45;;;;;;;15.77;4.38;;;28.50;99.90;;;;;;5093096;28;20031;-72
2023/10/12 12:31:15;;;;;;;11.85;4.28;;;28.50;99.90;;;;;;5092965;28;20024;-71
2023/10/12 12:33:45;;;;;;;16.92;4.13;;;28.50;99.90;;;;;;5093253;28;20059;-71
2023/10/12 12:36:21;;;;;;;16.60;4.68;;;28.50;99.90;;;;;;5093060;28;20028;-71
2023/10/12 12:38:51;;;;;;;18.23;4.60;;;28.60;99.90;;;;;;5092753;28;20127;-71
2023/10/12 12:41:18;;;;;;;12.00;4.10;;;28.60;99.90;;;;;;5092869;28;20057;-71
2023/10/12 12:43:47;;;;;;;12.82;4.00;;;28.50;99.90;;;;;;5093305;28;20098;-71
2023/10/12 12:46:15;;;;;;;15.07;6.20;;;28.30;99.90;;;;;;5092657;28;20028;-71
2023/10/12 12:48:48;;;;;;;9.35;3.80;;;28.30;99.90;;;;;;5093282;28;20020;-70
2023/10/12 12:51:15;;;;;;;14.38;4.18;;;28.30;99.90;;;;;;5073925;28;20028;-71
2023/10/12 12:53:46;;;;;;;23.70;4.70;;;28.40;99.90;;;;;;5092151;28;20059;-70
2023/10/12 12:56:17;;;;;;;13.48;3.63;;;28.30;99.90;;;;;;5092122;28;20040;-70
2023/10/12 12:58:48;;;;;;;25.67;4.88;;;28.30;99.90;;;;;;5092540;28;20402;-71
2023/10/12 13:01:17;;;;;;;14.95;4.57;;;28.50;99.90;;;;;;5092417;28;20036;-71
2023/10/12 13:03:46;;;;;;;13.43;4.18;;;28.50;99.90;;;;;;5092243;28;20048;-71
2023/10/12 13:06:15;;;;;;;16.30;4.55;;;28.40;99.90;;;;;;5074080;28;20020;-71
2023/10/12 13:08:41;;;;;;;10.05;3.75;;;28.20;99.90;;;;;;5092237;28;20031;-71
2023/10/12 13:11:09;;;;;;;13.95;3.83;;;28.20;99.90;;;;;;5092139;28;20082;-71
2023/10/12 13:13:39;;;;;;;16.50;4.22;;;28.20;99.90;;;;;;5092614;28;20020;-73
2023/10/12 13:16:12;;;;;;;12.20;4.43;;;28.30;99.90;;;;;;5092662;28;20044;-71
2023/10/12 13:18:39;;;;;;;14.18;4.30;;;28.50;99.90;;;;;;5092752;28;20023;-71
2023/10/12 13:21:14;;;;;;;16.92;5.00;;;28.50;99.90;;;;;;5074204;28;20487;-71
2023/10/12 13:23:40;;;;;;;17.67;5.40;;;28.40;99.90;;;;;;5093210;28;20358;-72
2023/10/12 13:26:07;;;;;;;;;;;28.40;99.90;;;;;;5093482;28;20090;-71
2023/10/12 13:28:34;;;;;;;13.80;4.55;;;28.40;99.90;;;;;;5092463;28;19904;-71
2023/10/12 13:31:01;;;;;;;15.55;4.40;;;28.30;99.90;;;;;;5077525;28;20483;-71
2023/10/12 13:33:31;;;;;;;14.35;4.78;;;28.30;99.90;;;;;;5096240;28;20043;-71
2023/10/12 13:35:57;;;;;;;15.00;4.85;;;28.30;99.90;;;;;;5095969;28;20508;-72
2023/10/12 13:38:29;;;;;;;18.98;4.50;;;28.40;99.90;;;;;;5096491;28;20048;-71
2023/10/12 13:40:57;;;;;;;17.58;4.53;;;28.10;99.90;;;;;;5096537;28;20032;-71
2023/10/12 13:43:30;;;;;;;14.48;4.30;;;28.20;99.90;;;;;;5096335;28;20024;-72
2023/10/12 13:45:56;;;;;;;12.50;4.28;;;28.10;99.90;;;;;;5096263;28;20073;-72
2023/10/12 13:48:25;;;;;;;15.80;4.57;;;28.00;99.90;;;;;;5095733;28;20032;-71
2023/10/12 13:51:04;;;;;;;15.48;4.70;;;28.10;99.90;;;;;;5095636;28;20060;-72
2023/10/12 13:53:36;;;;;;;16.15;4.70;;;28.00;99.90;;;;;;5077541;28;20384;-71
2023/10/12 13:56:09;;;;;;;13.40;4.22;;;28.00;99.90;;;;;;5095756;28;20043;-71
2023/10/12 13:58:36;;;;;;;12.30;4.45;;;27.80;99.90;;;;;;5095765;28;20095;-71
2023/10/12 14:01:13;;;;;;;18.25;4.63;;;27.90;99.90;;;;;;5095654;28;20159;-72
2023/10/12 14:03:41;;;;;;;12.68;4.28;;;27.70;99.90;;;;;;5095332;28;20039;-71
2023/10/12 14:06:07;;;;;;;14.85;4.65;;;27.90;99.90;;;;;;5095372;28;20024;-71
2023/10/12 14:08:43;;;;;;;10.98;4.35;;;27.90;99.90;;;;;;5095514;28;20546;-72
2023/10/12 14:11:19;;;;;;;15.00;4.50;;;27.80;99.90;;;;;;5095970;28;20027;-71
2023/10/12 14:13:46;;;;;;;14.20;4.13;;;27.60;99.90;;;;;;5095719;28;20016;-71
2023/10/12 14:16:13;;;;;;;18.80;4.85;;;27.70;99.90;;;;;;5094961;28;20036;-72
2023/10/12 14:18:40;;;;;;;14.60;4.50;;;27.70;99.90;;;;;;5095479;28;20108;-72
2023/10/12 14:21:10;;;;;;;18.75;4.75;;;27.70;99.90;;;;;;5095026;28;20429;-71
2023/10/12 14:23:40;;;;;;;29.20;4.88;;;27.80;99.90;;;;;;5095196;28;20503;-72
2023/10/12 14:26:09;;;;;;;18.38;4.65;;;27.60;99.90;;;;;;5076946;28;20054;-72
2023/10/12 14:28:35;;;;;;;13.70;4.55;;;27.50;99.90;;;;;;5094973;28;20051;-72
2023/10/12 14:31:02;;;;;;;19.67;4.53;;;27.50;99.90;;;;;;5095441;28;20016;-72
2023/10/12 14:33:30;;;;;;;;;;;27.50;99.90;;;;;;5095446;28;20047;-72
2023/10/12 14:35:57;;;;;;;12.98;4.95;;;27.30;99.90;;;;;;5094622;28;20022;-73
2023/10/12 14:38:24;;;;;;;13.32;4.80;;;27.20;99.90;;;;;;5094605;28;20090;-72
2023/10/12 14:40:51;;;;;;;22.40;5.10;;;27.10;99.90;;;;;;5076088;28;20070;-72
2023/10/12 14:43:21;;;;;;;17.65;5.25;;;27.10;99.90;;;;;;5076300;28;20137;-72
2023/10/12 14:45:55;;;;;;;10.68;4.50;;;27.10;99.90;;;;;;5076535;28;20028;-71
2023/10/12 14:48:23;;;;;;;10.80;4.95;;;27.20;99.90;;;;;;5076742;28;20028;-71
2023/10/12 14:51:00;;;;;;;9.48;4.95;;;27.00;99.90;;;;;;5093790;28;20020;-71
2023/10/12 14:53:28;;;;;;;11.52;4.82;;;27.00;99.90;;;;;;5075875;28;20060;-71
2023/10/12 14:55:55;;;;;;;19.13;5.47;;;27.00;99.90;;;;;;5094047;28;20395;-71
2023/10/12 14:58:21;;;;;;;10.60;5.05;;;26.90;99.90;;;;;;5094075;28;20425;-71
2023/10/12 15:00:50;;;;;;;12.35;5.47;;;26.70;99.90;;;;;;5094404;28;20032;-71
2023/10/12 15:03:21;;;;;;;21.50;5.78;;;26.80;99.90;;;;;;5093739;28;20054;-71
2023/10/12 15:05:51;;;;;;;12.63;5.88;;;26.70;99.90;;;;;;5093528;28;20036;-71
2023/10/12 15:08:23;;;;;;;16.00;5.88;;;26.60;99.90;;;;;;5093808;28;20027;-71
2023/10/12 15:10:49;;;;;;;10.63;5.32;;;26.60;99.90;;;;;;5074719;28;20020;-71
2023/10/12 15:13:20;;;;;;;14.98;5.28;;;26.50;99.90;;;;;;5093262;28;20032;-71
2023/10/12 15:15:47;;;;;;;19.85;5.88;;;26.30;99.90;;;;;;5093642;28;20050;-71
2023/10/12 15:18:14;;;;;;;9.70;4.72;;;26.30;99.90;;;;;;5075613;28;20111;-72
2023/10/12 15:20:43;;;;;;;13.85;5.60;;;26.30;99.90;;;;;;5075592;28;20028;-72
2023/10/12 15:23:09;;;;;;;15.93;6.00;;;26.10;99.90;;;;;;5094095;28;20016;-72
2023/10/12 15:25:35;;;;;;;13.45;5.15;;;25.80;99.90;;;;;;5093497;28;20039;-73
2023/10/12 15:28:02;;;;;;;16.63;5.53;;;25.80;99.90;;;;;;5093500;28;20052;-73
2023/10/12 15:30:31;;;;;;;13.70;5.93;;;25.70;99.90;;;;;;5093503;28;20487;-72
2023/10/12 15:32:59;;;;;;;12.43;5.00;;;25.70;99.90;;;;;;5093733;28;20103;-71
2023/10/12 15:35:26;;;;;;;15.48;5.78;;;25.60;99.90;;;;;;5093151;28;20063;-71
2023/10/12 15:37:58;;;;;;;14.25;5.90;;;25.60;99.90;;;;;;5093156;28;20425;-71
2023/10/12 15:40:27;;;;;;;12.15;4.88;;;25.60;99.90;;;;;;5093675;28;20024;-72
2023/10/12 15:43:04;;;;;;;11.18;4.60;;;25.60;99.90;;;;;;5093829;28;20431;-71
2023/10/12 15:45:32;;;;;;;17.55;5.72;;;25.60;99.90;;;;;;5093435;28;20482;-71
2023/10/12 15:47:58;;;;;;;16.33;5.38;;;25.70;99.90;;;;;;5092813;28;20028;-72
2023/10/12 15:50:26;;;;;;;20.33;5.35;;;25.40;99.90;;;;;;5092265;28;20111;-71